createdAt,value
2018-12-31T00:00:57.097Z,13.60
2018-12-31T00:03:26.208Z,18.48
2018-12-31T00:05:55.247Z,15.05
2018-12-31T00:08:24.212Z,19.62
2018-12-31T00:10:53.344Z,19.57
2018-12-31T00:13:22.322Z,17.80
2018-12-31T00:15:51.280Z,17.65
2018-12-31T00:18:20.408Z,17.50
2018-12-31T00:20:49.566Z,14.80
2018-12-31T00:23:18.617Z,18.07
2018-12-31T00:25:47.751Z,17.67
2018-12-31T00:28:17.336Z,16.20
2018-12-31T00:30:46.402Z,17.85
2018-12-31T00:33:15.455Z,16.27
2018-12-31T00:35:44.396Z,15.70
2018-12-31T00:38:13.402Z,18.42
2018-12-31T00:40:42.514Z,15.75
2018-12-31T00:43:11.534Z,20.72
2018-12-31T00:45:40.640Z,14.63
2018-12-31T00:48:09.681Z,16.32
2018-12-31T00:50:38.703Z,13.98
2018-12-31T00:53:07.699Z,17.02
2018-12-31T00:55:36.673Z,12.63
2018-12-31T00:58:05.639Z,15.93
2018-12-31T01:00:35.081Z,17.20
2018-12-31T01:03:05.307Z,13.55
2018-12-31T01:05:34.336Z,17.42
2018-12-31T01:08:03.376Z,14.65
2018-12-31T01:10:32.362Z,17.48
2018-12-31T01:13:01.385Z,16.30
2018-12-31T01:15:30.500Z,17.32
2018-12-31T01:17:59.504Z,14.13
2018-12-31T01:20:28.429Z,19.30
2018-12-31T01:22:57.553Z,17.70
2018-12-31T01:25:26.561Z,20.85
2018-12-31T01:27:55.533Z,16.50
2018-12-31T01:30:24.606Z,18.23
2018-12-31T01:32:53.706Z,18.45
2018-12-31T01:35:22.733Z,21.12
2018-12-31T01:37:52.074Z,20.57
2018-12-31T01:40:21.078Z,19.40
2018-12-31T01:42:50.246Z,21.23
2018-12-31T01:45:24.398Z,18.70
2018-12-31T01:47:53.562Z,18.48
2018-12-31T01:50:22.629Z,17.20
2018-12-31T01:52:51.703Z,18.42
2018-12-31T01:55:20.715Z,21.33
2018-12-31T01:57:49.727Z,18.40
2018-12-31T02:00:18.826Z,19.48
2018-12-31T02:02:47.868Z,16.27
2018-12-31T02:05:17.055Z,20.45
2018-12-31T02:07:46.264Z,16.50
2018-12-31T02:10:15.478Z,18.20
2018-12-31T02:12:44.804Z,18.27
2018-12-31T02:15:13.892Z,17.02
2018-12-31T02:17:42.925Z,19.40
2018-12-31T02:20:12.011Z,13.72
2018-12-31T02:22:40.909Z,21.82
2018-12-31T02:25:13.133Z,19.15
2018-12-31T02:27:42.361Z,20.10
2018-12-31T02:30:11.782Z,18.30
2018-12-31T02:32:40.823Z,19.25
2018-12-31T02:35:09.878Z,22.95
2018-12-31T02:37:38.897Z,16.45
2018-12-31T02:40:08.022Z,16.48
2018-12-31T02:42:37.036Z,16.57
2018-12-31T02:45:06.397Z,18.12
2018-12-31T02:47:35.474Z,19.45
2018-12-31T02:50:04.916Z,18.50
2018-12-31T02:52:33.942Z,22.32
2018-12-31T02:55:03.256Z,17.32
2018-12-31T02:57:32.320Z,19.75
2018-12-31T03:00:01.444Z,14.23
2018-12-31T03:02:30.431Z,15.43
2018-12-31T03:04:59.542Z,17.50
2018-12-31T03:07:28.594Z,20.35
2018-12-31T03:10:00.651Z,19.73
2018-12-31T03:12:30.024Z,13.85
2018-12-31T03:14:58.961Z,19.45
2018-12-31T03:17:27.979Z,15.88
2018-12-31T03:19:57.096Z,21.23
2018-12-31T03:22:26.107Z,15.40
2018-12-31T03:24:55.161Z,15.85
2018-12-31T03:27:27.367Z,16.85
2018-12-31T03:29:56.401Z,14.60
2018-12-31T03:32:25.457Z,14.95
2018-12-31T03:34:54.456Z,15.58
2018-12-31T03:37:23.546Z,14.33
2018-12-31T03:39:52.608Z,19.95
2018-12-31T03:42:21.911Z,19.25
2018-12-31T03:44:50.965Z,17.17
2018-12-31T03:47:20.034Z,17.32
2018-12-31T03:49:49.126Z,21.00
2018-12-31T03:52:18.196Z,18.10
2018-12-31T03:54:47.877Z,15.65
2018-12-31T03:57:17.025Z,19.98
2018-12-31T03:59:46.075Z,23.57
2018-12-31T04:02:15.130Z,19.35
2018-12-31T04:04:44.127Z,23.70
2018-12-31T04:07:13.225Z,17.87
2018-12-31T04:09:42.541Z,16.20
2018-12-31T04:12:11.648Z,15.15
2018-12-31T04:14:40.570Z,12.60
2018-12-31T04:17:09.583Z,19.42
2018-12-31T04:19:38.596Z,21.50
2018-12-31T04:22:07.639Z,14.18
2018-12-31T04:24:36.758Z,12.07
2018-12-31T04:27:06.234Z,15.20
2018-12-31T04:29:35.261Z,14.60
2018-12-31T04:32:04.301Z,12.88
2018-12-31T04:34:33.335Z,14.15
2018-12-31T04:37:02.321Z,15.72
2018-12-31T04:39:31.341Z,17.45
2018-12-31T04:42:03.426Z,15.85
2018-12-31T04:44:32.459Z,17.07
2018-12-31T04:47:01.508Z,17.12
2018-12-31T04:49:30.579Z,11.15
2018-12-31T04:51:59.747Z,13.05
2018-12-31T04:54:28.869Z,16.80
2018-12-31T04:56:57.798Z,16.48
2018-12-31T04:59:26.858Z,12.55
2018-12-31T05:01:55.862Z,16.97
2018-12-31T05:04:24.777Z,17.52
2018-12-31T05:06:53.791Z,20.32
2018-12-31T05:09:25.571Z,15.80
2018-12-31T05:11:54.596Z,20.77
2018-12-31T05:14:23.677Z,18.25
2018-12-31T05:16:52.579Z,14.70
2018-12-31T05:19:21.618Z,13.83
2018-12-31T05:21:50.635Z,11.97
2018-12-31T05:24:19.680Z,16.15
2018-12-31T05:26:48.665Z,18.57
2018-12-31T05:29:17.764Z,17.92
2018-12-31T05:31:47.116Z,18.23
2018-12-31T05:34:16.080Z,17.27
2018-12-31T05:36:48.088Z,20.60
2018-12-31T05:39:17.096Z,17.87
2018-12-31T05:41:46.135Z,16.52
2018-12-31T05:44:15.407Z,15.08
2018-12-31T05:46:44.432Z,20.20
2018-12-31T05:49:13.425Z,14.70
2018-12-31T05:51:42.423Z,18.37
2018-12-31T05:54:11.495Z,13.43
2018-12-31T05:56:40.557Z,22.37
2018-12-31T05:59:09.476Z,15.40
2018-12-31T06:01:38.485Z,18.60
2018-12-31T06:04:07.506Z,19.48
2018-12-31T06:06:36.568Z,20.52
2018-12-31T06:09:08.392Z,17.55
2018-12-31T06:11:38.560Z,11.95
2018-12-31T06:14:07.560Z,17.10
2018-12-31T06:16:36.724Z,20.37
2018-12-31T06:19:05.828Z,19.35
2018-12-31T06:21:34.920Z,20.37
2018-12-31T06:24:03.994Z,16.77
2018-12-31T06:26:33.005Z,20.27
2018-12-31T06:29:02.012Z,23.47
2018-12-31T06:31:31.040Z,16.75
2018-12-31T06:34:00.152Z,22.75
2018-12-31T06:36:29.161Z,23.73
2018-12-31T06:38:58.241Z,23.75
2018-12-31T06:41:27.240Z,20.17
2018-12-31T06:43:56.330Z,15.93
2018-12-31T06:46:25.350Z,17.42
2018-12-31T06:48:54.444Z,18.70
2018-12-31T06:51:23.541Z,18.05
2018-12-31T06:53:52.530Z,22.40
2018-12-31T06:56:21.609Z,18.05
2018-12-31T06:58:50.687Z,20.72
2018-12-31T07:01:19.715Z,25.88
2018-12-31T07:03:48.673Z,18.48
2018-12-31T07:06:17.742Z,18.67
2018-12-31T07:08:46.752Z,14.50
2018-12-31T07:11:15.668Z,20.82
2018-12-31T07:13:44.750Z,15.65
2018-12-31T07:16:13.856Z,15.45
2018-12-31T07:18:44.928Z,16.52
2018-12-31T07:21:13.974Z,18.17
2018-12-31T07:23:43.124Z,15.13
2018-12-31T07:26:12.170Z,19.90
2018-12-31T07:28:41.233Z,20.55
2018-12-31T07:31:10.383Z,20.12
2018-12-31T07:33:39.407Z,18.80
2018-12-31T07:36:11.258Z,20.32
2018-12-31T07:38:40.455Z,17.55
2018-12-31T07:41:10.225Z,22.32
2018-12-31T07:43:39.765Z,16.37
2018-12-31T07:46:08.797Z,16.17
2018-12-31T07:48:37.824Z,23.22
2018-12-31T07:51:06.835Z,18.98
2018-12-31T07:53:35.964Z,21.90
2018-12-31T07:56:05.134Z,26.77
2018-12-31T07:58:34.256Z,15.60
2018-12-31T08:01:03.537Z,20.85
2018-12-31T08:03:32.698Z,14.50
2018-12-31T08:06:01.798Z,19.37
2018-12-31T08:08:30.975Z,19.25
2018-12-31T08:11:00.039Z,17.82
2018-12-31T08:13:29.120Z,21.85
2018-12-31T08:15:58.080Z,23.95
2018-12-31T08:18:27.242Z,15.08
2018-12-31T08:20:56.298Z,17.95
2018-12-31T08:23:25.371Z,18.17
2018-12-31T08:25:54.424Z,24.92
2018-12-31T08:28:23.500Z,17.67
2018-12-31T08:30:52.482Z,20.37
2018-12-31T08:33:21.526Z,17.12
2018-12-31T08:35:50.598Z,22.62
2018-12-31T08:38:19.512Z,23.77
2018-12-31T08:40:48.901Z,20.10
2018-12-31T08:43:18.019Z,18.57
2018-12-31T08:45:47.121Z,16.30
2018-12-31T08:48:16.253Z,22.07
2018-12-31T08:50:45.534Z,17.92
2018-12-31T08:53:14.684Z,31.30
2018-12-31T08:55:43.934Z,16.17
2018-12-31T08:58:13.852Z,15.32
2018-12-31T09:00:44.342Z,15.68
2018-12-31T09:03:13.333Z,16.17
2018-12-31T09:05:42.530Z,17.27
2018-12-31T09:08:11.674Z,18.20
2018-12-31T09:10:40.826Z,21.62
2018-12-31T09:13:09.852Z,20.85
2018-12-31T09:15:38.881Z,16.90
2018-12-31T09:18:09.053Z,19.87
2018-12-31T09:20:38.005Z,22.62
2018-12-31T09:23:07.264Z,18.17
2018-12-31T09:25:36.638Z,13.65
2018-12-31T09:28:05.824Z,18.73
2018-12-31T09:30:34.920Z,20.25
2018-12-31T09:33:04.218Z,16.07
2018-12-31T09:35:33.323Z,17.65
2018-12-31T09:38:02.622Z,16.17
2018-12-31T09:40:31.664Z,19.02
2018-12-31T09:43:00.912Z,14.25
2018-12-31T09:45:29.915Z,18.05
2018-12-31T09:47:58.911Z,12.07
2018-12-31T09:50:28.185Z,14.90
2018-12-31T09:52:57.156Z,16.27
2018-12-31T09:55:26.453Z,20.45
2018-12-31T09:57:55.494Z,18.90
2018-12-31T10:00:24.917Z,15.83
2018-12-31T10:02:53.903Z,16.48
2018-12-31T10:05:22.999Z,16.57
2018-12-31T10:07:52.196Z,14.70
2018-12-31T10:10:21.305Z,11.48
2018-12-31T10:12:50.311Z,17.20
2018-12-31T10:15:19.368Z,15.40
2018-12-31T10:17:48.563Z,11.97
2018-12-31T10:20:17.621Z,17.17
2018-12-31T10:22:46.665Z,19.30
2018-12-31T10:25:16.871Z,15.20
2018-12-31T10:27:46.363Z,30.48
2018-12-31T10:30:15.482Z,19.62
2018-12-31T10:32:44.446Z,17.90
2018-12-31T10:35:13.556Z,17.87
2018-12-31T10:37:42.590Z,17.25
2018-12-31T10:40:11.724Z,15.70
2018-12-31T10:42:40.807Z,17.30
2018-12-31T10:45:10.233Z,20.80
2018-12-31T10:47:39.207Z,17.05
2018-12-31T10:50:08.289Z,16.23
2018-12-31T10:52:37.347Z,18.52
2018-12-31T10:55:24.748Z,21.42
2018-12-31T10:57:53.812Z,15.43
2018-12-31T11:00:23.555Z,18.87
2018-12-31T11:02:52.538Z,16.67
2018-12-31T11:05:21.651Z,18.50
2018-12-31T11:07:50.678Z,14.00
2018-12-31T11:10:19.799Z,19.15
2018-12-31T11:12:48.900Z,18.27
2018-12-31T11:15:18.036Z,13.38
2018-12-31T11:17:47.032Z,15.15
2018-12-31T11:20:16.095Z,22.02
2018-12-31T11:22:45.178Z,18.55
2018-12-31T11:25:14.059Z,19.45
2018-12-31T11:27:44.440Z,13.65
2018-12-31T11:30:13.531Z,13.05
2018-12-31T11:32:42.621Z,21.42
2018-12-31T11:35:11.704Z,16.12
2018-12-31T11:37:40.743Z,14.90
2018-12-31T11:40:09.771Z,15.95
2018-12-31T11:42:38.758Z,13.50
2018-12-31T11:45:13.615Z,13.35
2018-12-31T11:47:42.808Z,13.95
2018-12-31T11:50:12.025Z,16.48
2018-12-31T11:52:41.191Z,14.60
2018-12-31T11:55:13.038Z,10.63
2018-12-31T11:57:42.321Z,13.40
2018-12-31T12:00:11.520Z,18.07
2018-12-31T12:02:40.601Z,17.55
2018-12-31T12:05:09.678Z,13.95
2018-12-31T12:07:38.641Z,13.83
2018-12-31T12:10:07.759Z,22.70
2018-12-31T12:12:36.827Z,15.23
2018-12-31T12:15:06.245Z,16.90
2018-12-31T12:17:36.328Z,18.52
2018-12-31T12:20:05.556Z,11.18
2018-12-31T12:22:34.586Z,17.30
2018-12-31T12:25:03.797Z,17.05
2018-12-31T12:27:34.284Z,20.35
2018-12-31T12:30:03.514Z,15.30
2018-12-31T12:32:32.607Z,20.15
2018-12-31T12:35:01.652Z,16.23
2018-12-31T12:37:30.691Z,18.42
2018-12-31T12:39:59.873Z,17.27
2018-12-31T12:42:29.091Z,14.65
2018-12-31T12:44:58.316Z,18.77
2018-12-31T12:47:27.533Z,19.05
2018-12-31T12:49:56.477Z,21.57
2018-12-31T12:52:25.484Z,18.70
2018-12-31T12:54:57.659Z,16.75
2018-12-31T12:57:26.975Z,18.67
2018-12-31T12:59:55.996Z,15.03
2018-12-31T13:02:25.228Z,21.50
2018-12-31T13:04:54.536Z,16.93
2018-12-31T13:07:23.671Z,17.48
2018-12-31T13:09:53.433Z,19.87
2018-12-31T13:12:22.633Z,16.00
2018-12-31T13:14:51.779Z,15.95
2018-12-31T13:17:20.873Z,21.33
2018-12-31T13:19:49.955Z,15.35
2018-12-31T13:22:19.432Z,14.50
2018-12-31T13:24:48.580Z,17.73
2018-12-31T13:27:18.506Z,18.07
2018-12-31T13:29:47.637Z,20.12
2018-12-31T13:32:16.707Z,18.42
2018-12-31T13:34:45.858Z,20.60
2018-12-31T13:37:15.021Z,17.15
2018-12-31T13:39:44.074Z,18.77
2018-12-31T13:42:13.192Z,19.00
2018-12-31T13:44:42.211Z,17.87
2018-12-31T13:47:11.305Z,17.60
2018-12-31T13:49:40.519Z,17.80
2018-12-31T13:52:09.527Z,14.07
2018-12-31T13:54:41.587Z,17.80
2018-12-31T13:57:10.795Z,19.00
2018-12-31T13:59:39.841Z,17.02
2018-12-31T14:02:08.991Z,18.07
2018-12-31T14:04:38.161Z,14.60
2018-12-31T14:07:07.717Z,20.97
2018-12-31T14:09:38.442Z,17.10
2018-12-31T14:12:07.528Z,19.25
2018-12-31T14:14:36.601Z,16.67
2018-12-31T14:17:05.710Z,14.50
2018-12-31T14:19:34.660Z,15.38
2018-12-31T14:22:04.085Z,19.62
2018-12-31T14:24:33.082Z,21.90
2018-12-31T14:27:02.089Z,25.15
2018-12-31T14:29:31.139Z,24.75
2018-12-31T14:32:00.280Z,26.85
2018-12-31T14:34:29.570Z,17.12
2018-12-31T14:36:58.805Z,19.05
2018-12-31T14:39:27.996Z,24.50
2018-12-31T14:41:57.131Z,22.58
2018-12-31T14:44:26.190Z,20.52
2018-12-31T14:46:55.526Z,21.55
2018-12-31T14:49:24.641Z,21.90
2018-12-31T14:51:53.698Z,19.80
2018-12-31T14:54:25.693Z,22.17
2018-12-31T14:56:54.946Z,21.55
2018-12-31T14:59:24.099Z,22.73
2018-12-31T15:01:53.187Z,20.25
2018-12-31T15:04:22.288Z,18.87
2018-12-31T15:06:51.426Z,18.27
2018-12-31T15:09:23.618Z,19.27
2018-12-31T15:11:52.648Z,18.20
2018-12-31T15:14:21.745Z,18.25
2018-12-31T15:16:51.356Z,22.48
2018-12-31T15:19:20.544Z,17.95
2018-12-31T15:21:49.717Z,18.20
2018-12-31T15:24:18.793Z,20.23
2018-12-31T15:26:47.961Z,17.45
2018-12-31T15:29:17.102Z,19.30
2018-12-31T15:31:46.265Z,14.55
2018-12-31T15:34:15.322Z,17.45
2018-12-31T15:36:47.563Z,21.12
2018-12-31T15:39:16.936Z,17.37
2018-12-31T15:41:46.039Z,18.45
2018-12-31T15:44:15.188Z,20.35
2018-12-31T15:46:44.752Z,23.25
2018-12-31T15:49:14.015Z,23.32
2018-12-31T15:51:43.125Z,20.85
2018-12-31T15:54:12.403Z,23.15
2018-12-31T15:56:42.792Z,22.87
2018-12-31T15:59:12.228Z,18.75
2018-12-31T16:01:41.530Z,36.70
2018-12-31T16:04:10.632Z,22.73
2018-12-31T16:06:39.812Z,19.12
2018-12-31T16:09:09.608Z,17.65
2018-12-31T16:11:39.042Z,15.68
2018-12-31T16:14:08.621Z,19.12
2018-12-31T16:16:37.787Z,19.15
2018-12-31T16:19:07.138Z,17.50
2018-12-31T16:21:36.380Z,17.73
2018-12-31T16:24:05.690Z,18.40
2018-12-31T16:26:34.947Z,22.77
2018-12-31T16:29:04.169Z,17.27
2018-12-31T16:31:33.518Z,21.73
2018-12-31T16:34:02.586Z,33.28
2018-12-31T16:36:32.126Z,22.07
2018-12-31T16:39:01.057Z,39.55
2018-12-31T16:41:30.133Z,20.12
2018-12-31T16:43:59.246Z,16.35
2018-12-31T16:46:28.386Z,19.02
2018-12-31T16:48:57.454Z,18.15
2018-12-31T16:51:26.492Z,20.88
2018-12-31T16:53:55.614Z,24.43
2018-12-31T16:56:24.776Z,26.65
2018-12-31T16:58:53.683Z,20.90
2018-12-31T17:01:22.703Z,18.15
2018-12-31T17:03:51.758Z,17.48
2018-12-31T17:06:20.799Z,16.50
2018-12-31T17:08:49.906Z,18.42
2018-12-31T17:11:20.082Z,21.70
2018-12-31T17:13:49.559Z,21.30
2018-12-31T17:16:18.571Z,23.20
2018-12-31T17:18:50.412Z,26.37
2018-12-31T17:21:19.434Z,30.12
2018-12-31T17:23:48.555Z,26.52
2018-12-31T17:26:17.833Z,26.42
2018-12-31T17:28:46.957Z,24.90
2018-12-31T17:31:16.055Z,23.87
2018-12-31T17:33:45.003Z,26.45
2018-12-31T17:36:19.455Z,22.65
2018-12-31T17:38:49.088Z,31.45
2018-12-31T17:41:18.359Z,31.17
2018-12-31T17:43:50.225Z,28.60
2018-12-31T17:46:19.336Z,24.67
2018-12-31T17:48:48.277Z,31.68
2018-12-31T17:51:17.304Z,67.78
2018-12-31T17:53:46.423Z,45.80
2018-12-31T17:56:15.633Z,45.38
2018-12-31T17:58:44.735Z,34.83
2018-12-31T18:01:13.804Z,28.83
2018-12-31T18:03:42.922Z,29.25
2018-12-31T18:06:12.004Z,29.10
2018-12-31T18:08:41.593Z,26.85
2018-12-31T18:11:10.583Z,28.15
2018-12-31T18:13:39.625Z,26.40
2018-12-31T18:16:08.794Z,22.32
2018-12-31T18:18:38.313Z,23.98
2018-12-31T18:21:07.416Z,26.05
2018-12-31T18:23:36.377Z,22.62
2018-12-31T18:26:05.509Z,24.07
2018-12-31T18:28:34.554Z,21.12
2018-12-31T18:31:03.965Z,24.52
2018-12-31T18:33:33.284Z,23.52
2018-12-31T18:36:02.525Z,48.15
2018-12-31T18:38:31.696Z,32.10
2018-12-31T18:41:00.604Z,27.52
2018-12-31T18:43:29.727Z,19.00
2018-12-31T18:46:03.476Z,21.55
2018-12-31T18:48:32.730Z,21.52
2018-12-31T18:51:02.185Z,19.82
2018-12-31T18:53:31.371Z,26.93
2018-12-31T18:56:00.570Z,26.37
2018-12-31T18:58:29.718Z,22.58
2018-12-31T19:00:58.892Z,21.93
2018-12-31T19:03:28.307Z,20.32
2018-12-31T19:05:57.447Z,28.42
2018-12-31T19:08:26.519Z,25.02
2018-12-31T19:10:55.553Z,22.35
2018-12-31T19:13:24.700Z,25.90
2018-12-31T19:15:54.073Z,30.10
2018-12-31T19:18:26.498Z,26.15
2018-12-31T19:20:55.529Z,27.80
2018-12-31T19:23:24.528Z,35.98
2018-12-31T19:25:53.615Z,35.65
2018-12-31T19:28:22.988Z,40.08
2018-12-31T19:30:52.126Z,32.85
2018-12-31T19:33:21.101Z,43.05
2018-12-31T19:35:50.119Z,35.78
2018-12-31T19:38:19.043Z,32.08
2018-12-31T19:40:48.489Z,30.05
2018-12-31T19:43:17.491Z,28.77
2018-12-31T19:45:47.232Z,35.17
2018-12-31T19:48:16.428Z,28.23
2018-12-31T19:50:45.715Z,23.52
2018-12-31T19:53:15.022Z,37.78
2018-12-31T19:55:44.096Z,27.37
2018-12-31T19:58:13.125Z,31.65
2018-12-31T20:00:43.420Z,28.40
2018-12-31T20:03:12.625Z,23.00
2018-12-31T20:05:42.053Z,23.77
2018-12-31T20:08:11.217Z,25.05
2018-12-31T20:10:40.285Z,22.07
2018-12-31T20:13:09.377Z,25.08
2018-12-31T20:15:38.467Z,18.80
2018-12-31T20:18:10.582Z,23.73
2018-12-31T20:20:39.709Z,22.13
2018-12-31T20:23:08.747Z,25.40
2018-12-31T20:25:37.820Z,43.28
2018-12-31T20:28:10.901Z,22.62
2018-12-31T20:30:40.635Z,20.17
2018-12-31T20:33:09.797Z,21.27
2018-12-31T20:35:38.859Z,16.30
2018-12-31T20:38:08.347Z,19.12
2018-12-31T20:40:37.504Z,21.50
2018-12-31T20:43:06.604Z,19.35
2018-12-31T20:45:35.736Z,18.48
2018-12-31T20:48:05.804Z,20.57
2018-12-31T20:50:34.756Z,21.52
2018-12-31T20:53:03.944Z,21.40
2018-12-31T20:55:32.941Z,25.70
2018-12-31T20:58:02.505Z,24.37
2018-12-31T21:00:31.766Z,24.15
2018-12-31T21:03:01.123Z,22.85
2018-12-31T21:05:30.262Z,35.00
2018-12-31T21:07:59.437Z,24.50
2018-12-31T21:10:28.819Z,26.17
2018-12-31T21:12:57.902Z,25.10
2018-12-31T21:15:27.041Z,28.42
2018-12-31T21:17:56.093Z,28.25
2018-12-31T21:20:25.201Z,27.67
2018-12-31T21:22:54.316Z,29.95
2018-12-31T21:25:23.384Z,29.70
2018-12-31T21:27:55.064Z,32.00
2018-12-31T21:30:24.400Z,44.73
2018-12-31T21:32:53.436Z,35.65
2018-12-31T21:35:22.524Z,76.37
2018-12-31T21:37:51.752Z,47.03
2018-12-31T21:40:20.890Z,53.58
2018-12-31T21:42:49.997Z,40.05
2018-12-31T21:45:24.437Z,35.28
2018-12-31T21:47:53.812Z,30.68
2018-12-31T21:50:22.989Z,35.52
2018-12-31T21:52:52.128Z,27.93
2018-12-31T21:55:21.217Z,30.30
2018-12-31T21:57:50.265Z,32.38
2018-12-31T22:00:25.414Z,31.95
2018-12-31T22:02:57.168Z,45.80
2018-12-31T22:05:25.405Z,41.35
2018-12-31T22:07:54.599Z,38.83
2018-12-31T22:10:23.770Z,34.08
2018-12-31T22:12:53.260Z,37.60
2018-12-31T22:15:22.248Z,31.65
2018-12-31T22:17:51.724Z,36.65
2018-12-31T22:20:20.817Z,36.53
2018-12-31T22:22:50.004Z,35.40
2018-12-31T22:25:19.479Z,30.08
2018-12-31T22:27:54.651Z,108.07
2018-12-31T22:30:23.544Z,32.60
2018-12-31T22:32:52.689Z,35.65
2018-12-31T22:35:21.844Z,33.38
2018-12-31T22:37:52.621Z,28.85
2018-12-31T22:40:21.702Z,32.78
2018-12-31T22:42:50.764Z,28.35
2018-12-31T22:45:19.864Z,24.55
2018-12-31T22:47:48.977Z,31.87
2018-12-31T22:50:18.071Z,32.48
2018-12-31T22:52:47.193Z,35.73
2018-12-31T22:55:16.219Z,37.28
2018-12-31T22:57:45.283Z,44.60
2018-12-31T23:00:24.438Z,100.87
2018-12-31T23:02:53.444Z,63.98
2018-12-31T23:05:22.526Z,55.40
2018-12-31T23:07:51.525Z,251.67
2018-12-31T23:10:20.702Z,127.80
2018-12-31T23:12:50.076Z,254.03
2018-12-31T23:15:22.518Z,280.42
2018-12-31T23:17:51.760Z,239.65
2018-12-31T23:20:21.473Z,242.57
2018-12-31T23:22:50.941Z,239.15
2018-12-31T23:25:20.245Z,178.95
2018-12-31T23:27:51.523Z,158.42
2018-12-31T23:30:20.587Z,116.05
2018-12-31T23:32:49.721Z,143.17
2018-12-31T23:35:20.025Z,182.05
2018-12-31T23:37:49.141Z,215.57
2018-12-31T23:40:18.204Z,188.97
2018-12-31T23:42:47.372Z,184.57
2018-12-31T23:45:19.596Z,147.53
2018-12-31T23:47:48.766Z,196.85
2018-12-31T23:50:17.907Z,185.75
2018-12-31T23:52:47.044Z,161.40
2018-12-31T23:55:16.088Z,153.72
2018-12-31T23:57:45.403Z,164.03
